Time;durP1;ratioP1;P1;durP2;ratioP2;P2;SDS_P1;SDS_P2;PMS_P1;PMS_P2;Temp;Humidity;BMP_temperature;BMP_pressure;BME280_temperature;BME280_humidity;BME280_pressure;Samples;Min_cycle;Max_cycle;Signal;HPM_P1;HPM_P2
2023/01/31 00:04:42;;;;;;;11.25;6.38;;;;;;;;;;10393776;28;20425;-75
2023/01/31 00:09:43;;;;;;;13.27;6.30;;;;;;;;;;10386489;28;20050;-74
2023/01/31 00:14:43;;;;;;;12.30;6.37;;;;;;;;;;10391854;28;20295;-76
2023/01/31 00:19:44;;;;;;;13.90;6.90;;;;;;;;;;10375695;28;20299;-77
2023/01/31 00:24:44;;;;;;;10.90;6.45;;;;;;;;;;10317181;28;20302;-75
2023/01/31 00:29:45;;;;;;;13.57;6.82;;;;;;;;;;10321390;28;20061;-78
2023/01/31 00:34:46;;;;;;;14.52;7.03;;;;;;;;;;10314079;28;20660;-86
2023/01/31 00:39:46;;;;;;;14.63;7.13;;;;;;;;;;10320414;28;20482;-75
2023/01/31 00:44:50;;;;;;;13.32;6.18;;;;;;;;;;10378817;28;20602;-75
2023/01/31 00:49:51;;;;;;;13.18;6.75;;;;;;;;;;10386375;28;20115;-78
2023/01/31 00:54:51;;;;;;;10.05;6.93;;;;;;;;;;10382765;28;20044;-76
2023/01/31 00:59:52;;;;;;;13.70;6.38;;;;;;;;;;10383687;28;20046;-75
2023/01/31 01:04:53;;;;;;;13.57;6.80;;;;;;;;;;10401347;28;20045;-77
2023/01/31 01:09:55;;;;;;;14.52;7.32;;;;;;;;;;10416200;28;20046;-76
2023/01/31 01:14:55;;;;;;;11.48;5.93;;;;;;;;;;10390622;28;20047;-75
2023/01/31 01:19:57;;;;;;;12.85;6.90;;;;;;;;;;10393008;28;20056;-77
2023/01/31 01:24:57;;;;;;;13.10;6.55;;;;;;;;;;10417093;28;20041;-76
2023/01/31 01:29:58;;;;;;;14.55;6.65;;;;;;;;;;10421267;28;20530;-78
2023/01/31 01:34:58;;;;;;;14.40;6.22;;;;;;;;;;10417111;28;20120;-78
2023/01/31 01:40:02;;;;;;;12.93;6.38;;;;;;;;;;10379428;28;20056;-77
2023/01/31 01:45:04;;;;;;;13.07;6.60;;;;;;;;;;10400052;28;20103;-81
2023/01/31 01:50:10;;;;;;;12.50;7.07;;;;;;;;;;10390596;28;20081;-75
2023/01/31 01:55:17;;;;;;;13.45;6.82;;;;;;;;;;10394842;28;20830;-79
2023/01/31 02:00:23;;;;;;;15.63;7.30;;;;;;;;;;10396159;28;20053;-78
2023/01/31 02:05:34;;;;;;;13.27;6.75;;;;;;;;;;10379933;28;20659;-81
2023/01/31 02:10:44;;;;;;;15.88;7.28;;;;;;;;;;10417516;28;20096;-76
2023/01/31 02:15:45;;;;;;;14.35;7.35;;;;;;;;;;10405870;28;20054;-76
2023/01/31 02:20:51;;;;;;;15.27;7.65;;;;;;;;;;10403307;28;20493;-73
2023/01/31 02:26:11;;;;;;;16.60;7.15;;;;;;;;;;10386754;28;20494;-74
2023/01/31 02:31:11;;;;;;;13.75;6.65;;;;;;;;;;10362426;28;20048;-75
2023/01/31 02:36:15;;;;;;;15.30;7.38;;;;;;;;;;10377816;28;20605;-74
2023/01/31 02:41:21;;;;;;;11.73;6.22;;;;;;;;;;10386258;28;20045;-75
2023/01/31 02:46:28;;;;;;;14.38;7.22;;;;;;;;;;10394282;28;20034;-80
2023/01/31 02:51:32;;;;;;;14.23;7.13;;;;;;;;;;10399214;28;20049;-76
2023/01/31 02:56:34;;;;;;;14.73;7.55;;;;;;;;;;10424300;28;20493;-75
2023/01/31 03:01:36;;;;;;;11.40;6.63;;;;;;;;;;10406900;28;20069;-75
2023/01/31 03:06:36;;;;;;;16.77;7.03;;;;;;;;;;10409521;28;20620;-78
2023/01/31 03:11:54;;;;;;;14.75;7.30;;;;;;;;;;10384432;28;20049;-77
2023/01/31 03:22:23;;;;;;;14.18;7.40;;;;;;;;;;10401713;28;20068;-79
2023/01/31 03:27:23;;;;;;;10.73;6.40;;;;;;;;;;10371397;28;20184;-79
2023/01/31 03:32:30;;;;;;;17.25;6.93;;;;;;;;;;10366090;28;20053;-75
2023/01/31 03:37:37;;;;;;;14.50;7.00;;;;;;;;;;10392471;28;20088;-77
2023/01/31 03:42:56;;;;;;;13.05;6.38;;;;;;;;;;10385209;28;20037;-78
2023/01/31 03:47:58;;;;;;;17.58;7.00;;;;;;;;;;10376406;28;20437;-78
2023/01/31 03:53:10;;;;;;;16.27;7.50;;;;;;;;;;10380489;28;20053;-75
2023/01/31 03:58:12;;;;;;;17.20;7.35;;;;;;;;;;10385823;28;20076;-78
2023/01/31 04:03:19;;;;;;;14.13;6.55;;;;;;;;;;10377292;28;20045;-74
2023/01/31 04:08:20;;;;;;;14.48;6.20;;;;;;;;;;10384119;28;20060;-77
2023/01/31 04:13:28;;;;;;;12.75;6.10;;;;;;;;;;10385192;28;20156;-76
2023/01/31 04:18:29;;;;;;;15.40;6.47;;;;;;;;;;10402580;28;20136;-75
2023/01/31 04:23:29;;;;;;;15.48;6.28;;;;;;;;;;10421046;28;20106;-74
2023/01/31 04:28:30;;;;;;;11.85;6.10;;;;;;;;;;10427981;28;20045;-77
2023/01/31 04:33:30;;;;;;;10.50;6.53;;;;;;;;;;10415029;28;20057;-77
2023/01/31 04:38:30;;;;;;;18.63;8.15;;;;;;;;;;10393745;28;20293;-78
2023/01/31 04:43:31;;;;;;;14.60;6.85;;;;;;;;;;10395258;28;20045;-77
2023/01/31 04:48:31;;;;;;;13.38;6.20;;;;;;;;;;10397679;28;20832;-75
2023/01/31 04:53:32;;;;;;;10.98;5.65;;;;;;;;;;10392405;28;20042;-76
2023/01/31 04:58:32;;;;;;;19.08;6.82;;;;;;;;;;10400179;28;20048;-74
2023/01/31 05:03:34;;;;;;;12.23;6.47;;;;;;;;;;10397386;28;20033;-75
2023/01/31 05:08:35;;;;;;;15.25;6.70;;;;;;;;;;10386038;28;20316;-77
2023/01/31 05:13:38;;;;;;;13.35;6.47;;;;;;;;;;10395527;28;20046;-77
2023/01/31 05:18:39;;;;;;;11.05;5.78;;;;;;;;;;10398959;28;20046;-76
2023/01/31 05:23:39;;;;;;;15.73;7.25;;;;;;;;;;10407585;28;20054;-79
2023/01/31 05:28:40;;;;;;;18.50;6.70;;;;;;;;;;10350546;28;20050;-81
2023/01/31 05:33:41;;;;;;;11.70;5.63;;;;;;;;;;10362421;28;20042;-80
2023/01/31 05:38:42;;;;;;;12.43;5.90;;;;;;;;;;10356016;28;20068;-75
2023/01/31 05:43:42;;;;;;;12.52;5.65;;;;;;;;;;10352446;28;20053;-75
2023/01/31 05:48:43;;;;;;;12.70;6.53;;;;;;;;;;10357609;28;20149;-75
2023/01/31 05:53:44;;;;;;;10.97;5.57;;;;;;;;;;10381732;28;20144;-74
2023/01/31 05:58:49;;;;;;;12.63;5.88;;;;;;;;;;10361899;28;20301;-78
2023/01/31 06:03:49;;;;;;;12.68;6.53;;;;;;;;;;10387387;28;20045;-76
2023/01/31 06:08:49;;;;;;;12.35;5.70;;;;;;;;;;10354444;28;20054;-76
2023/01/31 06:13:50;;;;;;;14.00;6.38;;;;;;;;;;10375376;28;20125;-76
2023/01/31 06:18:50;;;;;;;12.90;5.68;;;;;;;;;;10384998;28;20057;-75
2023/01/31 06:23:51;;;;;;;12.95;5.95;;;;;;;;;;10408052;28;20042;-77
2023/01/31 06:28:51;;;;;;;14.88;6.15;;;;;;;;;;10360071;28;20426;-77
2023/01/31 06:33:51;;;;;;;12.88;5.53;;;;;;;;;;10395455;28;20087;-79
2023/01/31 06:38:52;;;;;;;16.10;7.55;;;;;;;;;;10407409;28;20389;-76
2023/01/31 06:43:52;;;;;;;14.10;5.77;;;;;;;;;;10402091;28;20053;-77
2023/01/31 06:48:52;;;;;;;11.80;6.40;;;;;;;;;;10390003;28;20411;-74
2023/01/31 06:53:55;;;;;;;13.03;6.33;;;;;;;;;;10389931;28;20096;-74
2023/01/31 06:58:55;;;;;;;17.08;6.15;;;;;;;;;;10407125;28;20291;-74
2023/01/31 07:03:55;;;;;;;15.02;7.05;;;;;;;;;;10406715;28;20051;-75
2023/01/31 07:08:56;;;;;;;16.05;5.75;;;;;;;;;;10388942;28;20045;-78
2023/01/31 07:13:56;;;;;;;17.50;7.30;;;;;;;;;;10402841;28;20034;-76
2023/01/31 07:18:57;;;;;;;12.65;6.30;;;;;;;;;;10390331;28;20413;-77
2023/01/31 07:23:58;;;;;;;13.25;6.03;;;;;;;;;;10407536;28;20613;-75
2023/01/31 07:28:59;;;;;;;12.60;5.45;;;;;;;;;;10386573;28;20068;-76
2023/01/31 07:33:59;;;;;;;10.75;6.10;;;;;;;;;;10417699;28;20037;-75
2023/01/31 07:39:00;;;;;;;17.05;5.90;;;;;;;;;;10403520;28;20045;-77
2023/01/31 07:44:01;;;;;;;13.02;6.28;;;;;;;;;;10397861;28;20048;-78
2023/01/31 07:49:01;;;;;;;14.43;6.50;;;;;;;;;;10392412;28;20049;-76
2023/01/31 07:54:02;;;;;;;10.93;5.80;;;;;;;;;;10406350;28;20045;-79
2023/01/31 07:59:03;;;;;;;12.88;6.00;;;;;;;;;;10396849;28;20048;-74
2023/01/31 08:04:04;;;;;;;9.77;4.80;;;;;;;;;;10365261;28;20045;-78
2023/01/31 08:09:04;;;;;;;13.40;5.50;;;;;;;;;;10393048;28;20486;-77
2023/01/31 08:14:07;;;;;;;12.02;5.93;;;;;;;;;;10383201;28;20050;-76
2023/01/31 08:19:08;;;;;;;13.70;5.30;;;;;;;;;;10373046;28;20493;-75
2023/01/31 08:24:08;;;;;;;12.55;5.43;;;;;;;;;;10369952;28;20045;-76
2023/01/31 08:29:08;;;;;;;11.48;5.18;;;;;;;;;;10369885;28;20050;-76
2023/01/31 08:34:09;;;;;;;15.20;5.97;;;;;;;;;;10389965;28;20084;-76
2023/01/31 08:39:10;;;;;;;11.70;5.47;;;;;;;;;;10386520;28;20486;-77
2023/01/31 08:44:11;;;;;;;10.50;5.05;;;;;;;;;;10394954;28;20042;-76
2023/01/31 08:49:11;;;;;;;11.82;5.43;;;;;;;;;;10384176;28;20072;-75
2023/01/31 08:54:12;;;;;;;10.38;5.03;;;;;;;;;;10400047;28;20033;-77
2023/01/31 08:59:13;;;;;;;13.57;5.53;;;;;;;;;;10415911;28;20675;-75
2023/01/31 09:04:13;;;;;;;10.60;5.50;;;;;;;;;;10403731;28;20042;-77
2023/01/31 09:09:13;;;;;;;16.40;6.35;;;;;;;;;;10379202;28;20076;-77
2023/01/31 09:14:14;;;;;;;11.77;5.20;;;;;;;;;;10394338;28;20153;-76
2023/01/31 09:19:14;;;;;;;13.18;6.22;;;;;;;;;;10380879;28;20049;-76
2023/01/31 09:24:14;;;;;;;9.60;5.45;;;;;;;;;;10376229;28;20049;-76
2023/01/31 09:29:15;;;;;;;12.27;5.87;;;;;;;;;;10402732;28;20056;-75
2023/01/31 09:34:16;;;;;;;11.65;5.70;;;;;;;;;;10400846;28;20791;-80
2023/01/31 09:39:16;;;;;;;14.00;5.90;;;;;;;;;;10403500;28;20051;-77
2023/01/31 09:44:20;;;;;;;12.32;5.30;;;;;;;;;;10393022;28;20055;-76
2023/01/31 09:49:22;;;;;;;15.25;5.30;;;;;;;;;;10386062;28;20076;-78
2023/01/31 09:54:27;;;;;;;18.57;5.77;;;;;;;;;;10390716;28;20052;-75
2023/01/31 09:59:32;;;;;;;13.75;5.22;;;;;;;;;;10380045;28;20046;-75
2023/01/31 10:04:52;;;;;;;16.60;6.28;;;;;;;;;;10387472;28;20595;-78
2023/01/31 10:09:57;;;;;;;9.27;4.72;;;;;;;;;;10377254;28;20084;-76
2023/01/31 10:15:01;;;;;;;12.05;5.35;;;;;;;;;;10400950;28;20037;-77
2023/01/31 10:20:01;;;;;;;;;;;;;;;;;;10374193;28;20066;-76
2023/01/31 10:25:21;;;;;;;14.15;4.93;;;;;;;;;;10397516;28;20016;-75
2023/01/31 10:30:24;;;;;;;17.20;8.68;;;;;;;;;;10404391;28;20049;-76
2023/01/31 10:35:26;;;;;;;12.23;4.97;;;;;;;;;;10400473;28;20046;-77
2023/01/31 10:40:31;;;;;;;9.10;4.63;;;;;;;;;;10382386;28;20041;-76
2023/01/31 10:45:32;;;;;;;11.30;4.57;;;;;;;;;;10397117;28;20917;-79
2023/01/31 10:50:54;;;;;;;11.40;4.65;;;;;;;;;;10277179;28;20105;-76
2023/01/31 11:01:13;;;;;;;13.77;5.78;;;;;;;;;;10404702;28;20515;-78
2023/01/31 11:06:14;;;;;;;10.77;5.70;;;;;;;;;;10393314;28;20056;-80
2023/01/31 11:11:16;;;;;;;8.85;4.93;;;;;;;;;;10387190;28;20083;-77
2023/01/31 11:16:16;;;;;;;14.63;5.65;;;;;;;;;;10390740;28;20049;-76
2023/01/31 11:21:25;;;;;;;11.02;6.47;;;;;;;;;;10394437;28;20401;-74
2023/01/31 11:26:38;;;;;;;13.48;5.90;;;;;;;;;;10401166;28;20072;-77
2023/01/31 11:31:41;;;;;;;12.00;5.75;;;;;;;;;;10392930;28;20088;-76
2023/01/31 11:36:44;;;;;;;12.40;6.75;;;;;;;;;;10393507;28;20070;-79
2023/01/31 11:41:47;;;;;;;13.73;6.50;;;;;;;;;;10386103;28;20042;-76
2023/01/31 11:46:51;;;;;;;13.00;6.40;;;;;;;;;;10387179;28;20064;-75
2023/01/31 11:51:51;;;;;;;12.63;6.60;;;;;;;;;;10389478;28;20416;-79
2023/01/31 11:56:52;;;;;;;13.93;6.60;;;;;;;;;;10369946;28;20044;-76
2023/01/31 12:01:54;;;;;;;15.15;7.65;;;;;;;;;;10395565;28;20816;-76
2023/01/31 12:07:00;;;;;;;17.08;7.28;;;;;;;;;;10420580;28;20045;-79
2023/01/31 12:12:02;;;;;;;18.05;7.43;;;;;;;;;;10425748;28;20460;-78
2023/01/31 12:17:03;;;;;;;14.07;7.13;;;;;;;;;;10410282;28;20057;-78
2023/01/31 12:22:14;;;;;;;13.27;7.63;;;;;;;;;;10418488;28;20087;-76
2023/01/31 12:27:17;;;;;;;15.35;7.07;;;;;;;;;;10390772;28;20052;-79
2023/01/31 12:32:24;;;;;;;16.17;7.50;;;;;;;;;;10382827;28;20580;-79
2023/01/31 12:37:32;;;;;;;13.63;7.05;;;;;;;;;;10385177;28;20430;-81
2023/01/31 12:42:35;;;;;;;15.00;6.38;;;;;;;;;;10375472;28;20183;-79
2023/01/31 12:59:15;;;;;;;10.88;6.03;;;;;;;;;;10414239;28;20073;-78
2023/01/31 13:04:21;;;;;;;13.60;6.70;;;;;;;;;;10366651;28;20057;-76
2023/01/31 13:09:31;;;;;;;14.98;6.40;;;;;;;;;;10402268;28;20440;-78
2023/01/31 14:52:41;;;;;;;10.75;6.07;;;;;;;;;;10595228;23;20050;-79
2023/01/31 15:09:20;;;;;;;10.70;4.50;;;;;;;;;;10369702;28;20067;-86
2023/01/31 15:14:28;;;;;;;11.33;5.40;;;;;;;;;;10363838;28;20103;-76
2023/01/31 15:36:56;;;;;;;8.00;4.47;;;;;;;;;;10355853;28;20050;-76
2023/01/31 15:42:18;;;;;;;8.27;3.92;;;;;;;;;;10350278;28;20046;-75
2023/01/31 17:19:14;;;;;;;11.00;5.53;;;;;;;;;;10362554;28;20062;-78
2023/01/31 17:35:01;;;;;;;;;;;;;;;;;;10370421;28;20041;-79
2023/01/31 17:40:01;;;;;;;11.27;5.47;;;;;;;;;;10350252;28;19921;-80
2023/01/31 18:09:42;;;;;;;7.40;5.18;;;;;;;;;;10277181;28;20055;-76
2023/01/31 18:14:42;;;;;;;9.93;5.30;;;;;;;;;;10261103;28;20407;-78
2023/01/31 18:19:43;;;;;;;9.75;5.70;;;;;;;;;;10258486;28;20051;-77
2023/01/31 18:24:43;;;;;;;10.60;5.00;;;;;;;;;;10229907;28;20047;-80
2023/01/31 18:29:44;;;;;;;8.75;5.35;;;;;;;;;;10242343;28;20579;-77
2023/01/31 18:47:11;;;;;;;8.25;4.97;;;;;;;;;;10360863;28;20057;-76
2023/01/31 18:52:12;;;;;;;8.60;5.75;;;;;;;;;;10370804;28;20058;-79
2023/01/31 18:57:13;;;;;;;8.35;5.03;;;;;;;;;;10375271;28;20052;-79
2023/01/31 19:02:14;;;;;;;8.48;4.95;;;;;;;;;;10337628;28;1157138;-78
2023/01/31 19:07:14;;;;;;;9.27;5.20;;;;;;;;;;10376175;28;20045;-80
2023/01/31 19:12:15;;;;;;;9.95;5.50;;;;;;;;;;10423591;28;20077;-78
2023/01/31 19:17:16;;;;;;;8.65;5.22;;;;;;;;;;10364705;28;20132;-78
2023/01/31 19:22:16;;;;;;;8.85;4.90;;;;;;;;;;10364161;28;20050;-79
2023/01/31 19:27:16;;;;;;;9.95;4.88;;;;;;;;;;10363484;28;20045;-78
2023/01/31 19:32:17;;;;;;;8.27;5.10;;;;;;;;;;10372150;28;20080;-79
2023/01/31 19:37:17;;;;;;;10.25;6.03;;;;;;;;;;10385959;28;20046;-78
2023/01/31 19:42:20;;;;;;;10.18;6.07;;;;;;;;;;10369769;28;20112;-78
2023/01/31 19:47:23;;;;;;;8.00;5.32;;;;;;;;;;10357785;28;20049;-78
2023/01/31 19:52:24;;;;;;;9.05;5.43;;;;;;;;;;10378314;28;20057;-79
2023/01/31 19:57:24;;;;;;;10.33;5.67;;;;;;;;;;10372218;28;20072;-82
2023/01/31 20:02:24;;;;;;;13.18;8.00;;;;;;;;;;10338985;28;20281;-80
2023/01/31 20:07:27;;;;;;;10.50;6.10;;;;;;;;;;10359600;28;20050;-82
2023/01/31 20:12:27;;;;;;;8.35;5.60;;;;;;;;;;10345871;28;20053;-80
2023/01/31 20:17:29;;;;;;;9.40;5.13;;;;;;;;;;10373115;28;20422;-80
2023/01/31 20:38:39;;;;;;;7.32;4.80;;;;;;;;;;10333492;28;20084;-78
2023/01/31 20:43:40;;;;;;;8.75;5.53;;;;;;;;;;10350589;23;20557;-78
2023/01/31 20:53:54;;;;;;;8.48;5.03;;;;;;;;;;10372746;28;20136;-81
2023/01/31 20:58:55;;;;;;;8.55;5.35;;;;;;;;;;10357433;28;20046;-83
2023/01/31 21:03:56;;;;;;;9.43;4.88;;;;;;;;;;10396209;28;20049;-76
2023/01/31 21:08:56;;;;;;;7.33;4.40;;;;;;;;;;10378985;28;20144;-77
2023/01/31 21:13:57;;;;;;;8.05;4.82;;;;;;;;;;10368177;28;20843;-78
2023/01/31 21:18:57;;;;;;;9.27;5.13;;;;;;;;;;10373080;28;20187;-79
2023/01/31 21:23:58;;;;;;;7.78;4.68;;;;;;;;;;10373560;28;20054;-79
2023/01/31 21:29:01;;;;;;;6.07;4.53;;;;;;;;;;10360536;28;20045;-79
2023/01/31 21:34:04;;;;;;;9.15;5.30;;;;;;;;;;10373518;28;20505;-80
2023/01/31 21:39:04;;;;;;;7.37;4.77;;;;;;;;;;10374617;28;20038;-81
2023/01/31 21:44:05;;;;;;;8.10;5.15;;;;;;;;;;10395300;28;20041;-80
2023/01/31 21:49:07;;;;;;;8.52;5.30;;;;;;;;;;10368982;28;20049;-77
2023/01/31 21:54:07;;;;;;;7.60;5.75;;;;;;;;;;10389006;28;20489;-81
2023/01/31 21:59:08;;;;;;;8.20;4.95;;;;;;;;;;10367312;28;20156;-80
2023/01/31 22:04:08;;;;;;;8.15;5.32;;;;;;;;;;10360280;28;20050;-81
2023/01/31 22:09:09;;;;;;;6.72;5.07;;;;;;;;;;10372440;28;20477;-82
2023/01/31 22:14:12;;;;;;;7.32;5.07;;;;;;;;;;10375535;28;20453;-83
2023/01/31 22:19:13;;;;;;;8.75;5.63;;;;;;;;;;10393046;28;20054;-81
2023/01/31 22:24:13;;;;;;;7.70;5.13;;;;;;;;;;10420106;28;20184;-83
2023/01/31 22:29:14;;;;;;;6.93;5.10;;;;;;;;;;10392237;28;20061;-81
2023/01/31 22:34:15;;;;;;;6.72;4.90;;;;;;;;;;10365334;28;20276;-79
2023/01/31 22:39:15;;;;;;;7.80;4.95;;;;;;;;;;10359078;28;20085;-78
2023/01/31 22:44:16;;;;;;;8.65;5.05;;;;;;;;;;10370472;28;20064;-80
2023/01/31 22:49:18;;;;;;;7.90;5.03;;;;;;;;;;10391514;28;20046;-76
2023/01/31 22:54:18;;;;;;;19.70;6.25;;;;;;;;;;10378915;28;20394;-76
2023/01/31 22:59:18;;;;;;;6.55;4.05;;;;;;;;;;10372776;28;20056;-80
2023/01/31 23:04:19;;;;;;;5.88;3.90;;;;;;;;;;10389477;28;20037;-78
2023/01/31 23:09:19;;;;;;;4.50;3.47;;;;;;;;;;10362010;28;20557;-78
2023/01/31 23:14:20;;;;;;;5.13;3.63;;;;;;;;;;10387268;28;20053;-77
2023/01/31 23:19:20;;;;;;;5.35;3.55;;;;;;;;;;10385480;28;20109;-80
2023/01/31 23:24:22;;;;;;;4.32;3.10;;;;;;;;;;10385803;28;20058;-76
2023/01/31 23:29:22;;;;;;;3.95;3.25;;;;;;;;;;10382022;28;20045;-78
2023/01/31 23:34:23;;;;;;;5.30;3.80;;;;;;;;;;10352585;28;20038;-77
2023/01/31 23:39:23;;;;;;;6.05;4.68;;;;;;;;;;10336613;28;20034;-77
2023/01/31 23:44:23;;;;;;;6.43;4.60;;;;;;;;;;10373845;28;20192;-78
2023/01/31 23:49:24;;;;;;;6.75;5.20;;;;;;;;;;10374022;28;20127;-78
2023/01/31 23:54:24;;;;;;;11.25;6.38;;;;;;;;;;10344130;28;20054;-76
2023/01/31 23:59:25;;;;;;;9.65;6.45;;;;;;;;;;10309975;28;20042;-78
